Time;durP1;ratioP1;P1;durP2;ratioP2;P2;SDS_P1;SDS_P2;PMS_P1;PMS_P2;Temp;Humidity;BMP_temperature;BMP_pressure;BME280_temperature;BME280_humidity;BME280_pressure;Samples;Min_cycle;Max_cycle;Signal;HPM_P1;HPM_P2
2023/09/19 00:03:03;;;;;;;1.43;0.50;;;;;;;;;;20951218;28;20256;-69
2023/09/19 00:13:05;;;;;;;1.17;0.50;;;;;;;;;;20934865;28;20215;-69
2023/09/19 00:23:10;;;;;;;0.27;0.23;;;;;;;;;;20918229;28;20218;-68
2023/09/19 00:33:16;;;;;;;1.07;0.30;;;;;;;;;;20920370;28;20211;-69
2023/09/19 00:43:17;;;;;;;1.10;0.50;;;;;;;;;;20932808;28;20253;-68
2023/09/19 00:53:21;;;;;;;0.77;0.50;;;;;;;;;;20956370;28;20215;-69
2023/09/19 01:03:23;;;;;;;2.00;0.40;;;;;;;;;;20894049;28;20275;-68
2023/09/19 01:13:46;;;;;;;0.87;0.40;;;;;;;;;;20954982;22;20250;-77
2023/09/19 01:24:08;;;;;;;1.40;0.40;;;;;;;;;;20931533;28;20219;-79
2023/09/19 01:34:10;;;;;;;0.37;0.30;;;;;;;;;;20924472;28;20242;-78
2023/09/19 01:44:16;;;;;;;0.47;0.33;;;;;;;;;;20956598;28;20223;-76
2023/09/19 01:54:26;;;;;;;1.33;0.40;;;18.80;99.90;;;;;;20940550;28;20687;-75
2023/09/19 02:04:28;;;;;;;0.47;0.33;;;;;;;;;;20949427;28;20223;-77
2023/09/19 02:14:30;;;;;;;0.53;0.30;;;;;;;;;;20973622;28;20279;-77
2023/09/19 02:24:32;;;;;;;1.20;0.50;;;;;;;;;;20977174;28;20772;-76
2023/09/19 02:34:36;;;;;;;0.50;0.50;;;;;;;;;;20954558;28;20732;-75
2023/09/19 02:44:38;;;;;;;0.97;0.40;;;;;;;;;;20909272;28;20227;-77
2023/09/19 02:54:40;;;;;;;1.63;0.53;;;;;;;;;;20925313;28;20269;-76
2023/09/19 03:04:42;;;;;;;0.73;0.40;;;;;;;;;;20992465;28;20282;-77
2023/09/19 03:14:44;;;;;;;1.13;0.40;;;;;;;;;;20998112;28;20305;-77
2023/09/19 03:24:47;;;;;;;1.50;0.50;;;;;;;;;;20947540;28;20235;-76
2023/09/19 03:34:49;;;;;;;2.17;0.50;;;;;;;;;;20930858;28;20208;-77
2023/09/19 03:44:52;;;;;;;1.33;0.70;;;;;;;;;;20959315;28;20634;-78
2023/09/19 03:54:54;;;;;;;0.53;0.40;;;;;;;;;;20894805;28;20269;-77
2023/09/19 04:04:56;;;;;;;1.90;0.50;;;;;;;;;;20931709;28;20218;-77
2023/09/19 04:14:57;;;;;;;1.93;0.63;;;;;;;;;;20962673;28;20218;-77
2023/09/19 04:24:59;;;;;;;0.93;0.50;;;;;;;;;;20956191;28;20232;-77
2023/09/19 04:35:05;;;;;;;0.90;0.60;;;;;;;;;;20914418;28;20220;-77
2023/09/19 04:45:07;;;;;;;3.10;0.67;;;;;;;;;;20937021;28;20706;-77
2023/09/19 04:55:16;;;;;;;1.80;0.60;;;18.60;99.90;;;;;;20934711;28;20222;-77
2023/09/19 05:05:18;;;;;;;1.13;0.70;;;18.30;99.90;;;;;;20956037;28;20234;-76
2023/09/19 05:15:21;;;;;;;1.40;0.50;;;;;;;;;;20885506;28;1127203;-77
2023/09/19 05:25:22;;;;;;;2.03;0.80;;;;;;;;;;20913006;28;20485;-77
2023/09/19 05:35:24;;;;;;;4.27;0.70;;;;;;;;;;20935281;28;20214;-76
2023/09/19 05:45:27;;;;;;;2.23;0.73;;;;;;;;;;20978151;28;20680;-76
2023/09/19 05:55:29;;;;;;;1.13;0.60;;;;;;;;;;20951142;28;20691;-77
2023/09/19 06:05:31;;;;;;;0.40;0.37;;;;;;;;;;20978259;28;20636;-77
2023/09/19 06:15:35;;;;;;;2.47;0.80;;;;;;;;;;20971053;28;20601;-78
2023/09/19 06:25:37;;;;;;;0.63;0.43;;;;;;;;;;20977629;28;20772;-77
2023/09/19 06:35:40;;;;;;;1.50;0.60;;;;;;;;;;20945628;28;20260;-77
2023/09/19 06:45:42;;;;;;;0.67;0.50;;;;;;;;;;20964393;28;20279;-79
2023/09/19 06:55:45;;;;;;;1.50;0.50;;;;;;;;;;20929973;28;20288;-77
2023/09/19 07:05:48;;;;;;;1.40;0.40;;;18.70;99.90;;;;;;20937615;28;20278;-79
2023/09/19 07:15:50;;;;;;;1.23;0.50;;;;;;;;;;20949257;28;20275;-79
2023/09/19 07:25:51;;;;;;;0.97;0.40;;;;;;;;;;20959895;28;20222;-79
2023/09/19 07:35:53;;;;;;;1.63;0.63;;;;;;;;;;20957500;28;20612;-80
2023/09/19 07:45:55;;;;;;;0.90;0.50;;;;;;;;;;20918558;28;20254;-78
2023/09/19 07:56:04;;;;;;;1.60;0.73;;;20.00;99.90;;;;;;20963265;28;20232;-80
2023/09/19 08:06:08;;;;;;;2.13;0.50;;;;;;;;;;20944013;22;20247;-66
2023/09/19 08:16:10;;;;;;;1.10;0.50;;;;;;;;;;20787596;28;20286;-66
2023/09/19 08:26:12;;;;;;;1.53;0.70;;;;;;;;;;20810298;28;20688;-66
2023/09/19 08:36:14;;;;;;;0.97;0.57;;;;;;;;;;20806015;28;20265;-66
2023/09/19 08:46:17;;;;;;;1.23;0.47;;;;;;;;;;20786651;28;20228;-66
2023/09/19 08:56:22;;;;;;;1.60;0.47;;;;;;;;;;20808688;28;20217;-66
2023/09/19 09:06:25;;;;;;;0.83;0.40;;;;;;;;;;20812557;28;20225;-66
2023/09/19 09:16:26;;;;;;;0.67;0.40;;;;;;;;;;20848628;28;20228;-67
2023/09/19 09:26:54;;;;;;;1.43;0.50;;;20.30;99.90;;;;;;20842469;28;20446;-67
2023/09/19 09:36:56;;;;;;;1.07;0.57;;;;;;;;;;20878137;28;20228;-67
2023/09/19 09:57:23;;;;;;;0.50;0.30;;;;;;;;;;20839832;28;20218;-66
2023/09/19 10:07:32;;;;;;;1.60;0.70;;;20.90;99.90;;;;;;20858095;28;20223;-67
2023/09/19 10:17:36;;;;;;;1.60;0.57;;;;;;;;;;20858811;28;20661;-67
2023/09/19 10:27:40;;;;;;;0.47;0.30;;;;;;;;;;20855045;28;20241;-68
2023/09/19 10:37:44;;;;;;;0.50;0.40;;;;;;;;;;20856129;28;20298;-67
2023/09/19 10:47:47;;;;;;;2.00;0.63;;;;;;;;;;20828191;28;20228;-67
2023/09/19 10:57:49;;;;;;;2.37;0.60;;;;;;;;;;20855509;28;20224;-69
2023/09/19 11:07:57;;;;;;;4.03;0.70;;;;;;;;;;20854807;28;20243;-67
2023/09/19 11:17:59;;;;;;;1.60;0.60;;;;;;;;;;20853596;28;20220;-67
2023/09/19 11:28:05;;;;;;;1.67;0.47;;;;;;;;;;20837868;28;20278;-66
2023/09/19 11:38:10;;;;;;;1.20;0.50;;;;;;;;;;20842010;28;20680;-67
2023/09/19 11:48:25;;;;;;;1.10;0.40;;;;;;;;;;20833812;28;20305;-67
2023/09/19 11:58:28;;;;;;;0.50;0.40;;;;;;;;;;20859215;28;20261;-67
2023/09/19 12:08:34;;;;;;;0.90;0.50;;;;;;;;;;20867425;28;20263;-68
2023/09/19 12:18:41;;;;;;;0.73;0.47;;;;;;;;;;20850735;28;20225;-67
2023/09/19 12:28:45;;;;;;;1.20;0.60;;;;;;;;;;20832948;28;20227;-68
2023/09/19 12:38:49;;;;;;;0.88;0.50;;;;;;;;;;20863800;28;20227;-67
2023/09/19 12:49:19;;;;;;;0.75;0.47;;;23.30;99.90;;;;;;20851271;28;20236;-67
2023/09/19 12:59:31;;;;;;;0.70;0.40;;;;;;;;;;20843666;28;20280;-68
2023/09/19 13:09:35;;;;;;;1.33;0.40;;;;;;;;;;20863832;28;20233;-67
2023/09/19 13:19:54;;;;;;;0.30;0.30;;;23.60;99.90;;;;;;20855823;28;20269;-67
2023/09/19 13:29:56;;;;;;;1.25;0.45;;;;;;;;;;20878942;28;20610;-67
2023/09/19 13:39:59;;;;;;;0.77;0.30;;;;;;;;;;20862014;28;20296;-67
2023/09/19 13:50:04;;;;;;;0.40;0.40;;;23.60;99.90;;;;;;20835827;28;20252;-68
2023/09/19 14:00:10;;;;;;;0.65;0.32;;;;;;;;;;20849579;28;20291;-67
2023/09/19 14:10:15;;;;;;;1.58;0.40;;;;;;;;;;20818616;22;20232;-68
2023/09/19 14:20:17;;;;;;;0.65;0.40;;;;;;;;;;20806417;28;20293;-68
2023/09/19 14:30:19;;;;;;;0.45;0.40;;;;;;;;;;20780069;28;20253;-68
2023/09/19 14:40:22;;;;;;;0.60;0.43;;;;;;;;;;20792284;28;20297;-68
2023/09/19 14:50:24;;;;;;;1.58;0.55;;;;;;;;;;20797422;28;20603;-69
2023/09/19 15:00:27;;;;;;;0.68;0.32;;;;;;;;;;20872920;28;20723;-67
2023/09/19 15:10:29;;;;;;;0.52;0.40;;;;;;;;;;20888714;28;20630;-68
2023/09/19 15:20:32;;;;;;;2.15;0.47;;;;;;;;;;20845814;28;20238;-70
2023/09/19 15:30:38;;;;;;;0.40;0.30;;;;;;;;;;20777304;28;20263;-67
2023/09/19 15:40:46;;;;;;;0.55;0.40;;;;;;;;;;20787494;28;20568;-69
2023/09/19 15:50:48;;;;;;;1.17;0.50;;;;;;;;;;20789181;28;20225;-69
2023/09/19 16:00:50;;;;;;;0.82;0.35;;;;;;;;;;20884912;28;20714;-70
2023/09/19 16:10:52;;;;;;;0.73;0.40;;;;;;;;;;20776192;28;20282;-69
2023/09/19 16:20:54;;;;;;;0.70;0.40;;;;;;;;;;20772930;28;20672;-69
2023/09/19 16:30:59;;;;;;;0.57;0.50;;;22.40;99.90;;;;;;20809158;28;20227;-69
2023/09/19 16:41:01;;;;;;;0.88;0.40;;;;;;;;;;20797365;28;20739;-70
2023/09/19 16:51:04;;;;;;;1.30;0.40;;;22.30;99.90;;;;;;20764571;28;20223;-70
2023/09/19 17:01:13;;;;;;;0.45;0.30;;;;;;;;;;20795458;28;20240;-70
2023/09/19 17:11:16;;;;;;;0.77;0.40;;;;;;;;;;20788866;28;20359;-69
2023/09/19 17:21:19;;;;;;;0.55;0.40;;;19.70;99.90;;;;;;20784273;28;20205;-69
2023/09/19 17:31:24;;;;;;;0.40;0.38;;;21.80;99.90;;;;;;20775645;28;20231;-69
2023/09/19 17:41:26;;;;;;;0.52;0.40;;;21.70;99.90;;;;;;20810412;28;20217;-69
2023/09/19 17:51:28;;;;;;;0.47;0.30;;;;;;;;;;20821422;28;20383;-68
2023/09/19 18:01:32;;;;;;;0.97;0.30;;;;;;;;;;20809853;28;20766;-68
2023/09/19 18:11:34;;;;;;;0.75;0.50;;;;;;;;;;20793538;28;20233;-68
2023/09/19 18:21:37;;;;;;;1.60;0.70;;;;;;;;;;20776255;28;20554;-68
2023/09/19 18:31:39;;;;;;;0.52;0.40;;;;;;;;;;20821264;28;20846;-68
2023/09/19 18:41:43;;;;;;;0.55;0.32;;;;;;;;;;20808521;28;20604;-69
2023/09/19 18:51:45;;;;;;;1.58;0.55;;;;;;;;;;20794163;28;20762;-69
2023/09/19 19:01:47;;;;;;;1.67;0.50;;;;;;;;;;20769769;28;20225;-69
2023/09/19 19:11:49;;;;;;;0.50;0.30;;;;;;;;;;20796946;28;20232;-69
2023/09/19 19:21:52;;;;;;;0.38;0.28;;;;;;;;;;20782855;28;20232;-69
2023/09/19 19:31:54;;;;;;;2.83;0.57;;;;;;;;;;20784082;28;20229;-69
2023/09/19 19:41:58;;;;;;;0.77;0.40;;;;;;;;;;20780538;28;20602;-69
2023/09/19 19:52:00;;;;;;;1.70;0.30;;;;;;;;;;20786263;28;20627;-68
2023/09/19 20:02:02;;;;;;;0.53;0.30;;;;;;;;;;20810760;22;20240;-69
2023/09/19 20:12:04;;;;;;;0.30;0.30;;;;;;;;;;20715928;28;20219;-69
2023/09/19 20:22:08;;;;;;;1.07;0.30;;;;;;;;;;20741596;28;20290;-69
2023/09/19 20:32:11;;;;;;;0.40;0.30;;;;;;;;;;20765786;28;20225;-69
2023/09/19 20:42:12;;;;;;;0.40;0.30;;;;;;;;;;20779053;28;20270;-69
2023/09/19 20:52:16;;;;;;;0.63;0.40;;;20.30;99.90;;;;;;20738364;28;20227;-69
2023/09/19 21:02:18;;;;;;;1.90;0.40;;;;;;;;;;20746949;28;20226;-70
2023/09/19 21:12:19;;;;;;;0.80;0.30;;;;;;;;;;20782076;28;20224;-69
2023/09/19 21:22:21;;;;;;;1.47;0.43;;;;;;;;;;20776442;28;20209;-69
2023/09/19 21:32:23;;;;;;;0.90;0.30;;;;;;;;;;20799509;28;20254;-69
2023/09/19 21:42:26;;;;;;;0.50;0.40;;;;;;;;;;20812364;28;20218;-68
2023/09/19 21:52:28;;;;;;;0.37;0.30;;;;;;;;;;20784429;28;20281;-69
2023/09/19 22:02:32;;;;;;;1.50;0.40;;;;;;;;;;20744737;28;20611;-69
2023/09/19 22:12:33;;;;;;;1.00;0.40;;;;;;;;;;20813116;28;20277;-69
2023/09/19 22:22:37;;;;;;;1.07;0.47;;;;;;;;;;20796753;28;20232;-69
2023/09/19 22:32:39;;;;;;;0.97;0.53;;;;;;;;;;20794067;28;20298;-69
2023/09/19 22:42:41;;;;;;;0.80;0.37;;;;;;;;;;20794230;28;20225;-69
2023/09/19 22:52:47;;;;;;;0.77;0.33;;;;;;;;;;20773020;28;20578;-69
2023/09/19 23:02:50;;;;;;;0.20;0.20;;;;;;;;;;20792468;28;20228;-69
2023/09/19 23:12:54;;;;;;;0.50;0.30;;;;;;;;;;20791906;28;20294;-69
2023/09/19 23:22:58;;;;;;;0.53;0.30;;;;;;;;;;20760694;28;20217;-69
2023/09/19 23:33:00;;;;;;;0.60;0.40;;;;;;;;;;20806207;28;20287;-69
2023/09/19 23:43:11;;;;;;;1.13;0.40;;;;;;;;;;20820866;28;20765;-69
2023/09/19 23:53:14;;;;;;;0.30;0.30;;;;;;;;;;20738354;28;20228;-69
